Time;durP1;ratioP1;P1;durP2;ratioP2;P2;SDS_P1;SDS_P2;PMS_P1;PMS_P2;Temp;Humidity;BMP_temperature;BMP_pressure;BME280_temperature;BME280_humidity;BME280_pressure;Samples;Min_cycle;Max_cycle;Signal;HPM_P1;HPM_P2
2023/09/25 00:02:00;;;;;;;3.57;1.50;;;;;;;10.94;100.00;101373.56;4984607;28;20205;-76
2023/09/25 00:04:28;;;;;;;4.20;1.60;;;;;;;12.15;100.00;101621.13;4985377;28;20186;-77
2023/09/25 00:06:53;;;;;;;3.57;1.80;;;;;;;10.31;100.00;101305.28;4999544;28;20579;-77
2023/09/25 00:09:19;;;;;;;3.07;1.57;;;;;;;11.44;100.00;101491.88;4984299;28;20457;-76
2023/09/25 00:11:44;;;;;;;4.73;1.80;;;;;;;10.71;100.00;101338.81;4982789;28;20205;-76
2023/09/25 00:14:10;;;;;;;2.77;1.10;;;;;;;12.26;100.00;101588.34;4983359;28;20182;-77
2023/09/25 00:16:35;;;;;;;3.23;1.60;;;;;;;12.21;100.00;101675.00;4983887;28;20656;-76
2023/09/25 00:19:01;;;;;;;2.90;1.20;;;;;;;11.36;100.00;101457.06;4984438;28;20308;-77
2023/09/25 00:21:26;;;;;;;3.37;1.50;;;;;;;10.34;100.00;101237.88;4982451;28;20193;-75
2023/09/25 00:23:52;;;;;;;2.97;1.33;;;;;;;11.90;100.00;101573.06;4984289;28;20239;-75
2023/09/25 00:26:17;;;;;;;4.07;1.73;;;;;;;11.36;100.00;101463.28;4985595;28;20810;-76
2023/09/25 00:28:43;;;;;;;5.57;2.07;;;;;;;11.23;100.00;101441.66;4983528;28;20193;-76
2023/09/25 00:31:09;;;;;;;3.30;1.60;;;;;;;11.39;100.00;101494.31;4985895;28;20199;-76
2023/09/25 00:33:35;;;;;;;4.20;1.70;;;;;;;10.21;100.00;101256.41;4982426;28;20610;-76
2023/09/25 00:36:00;;;;;;;3.13;1.60;;;;;;;11.05;100.00;101394.56;4984925;28;20481;-76
2023/09/25 00:38:26;;;;;;;4.03;1.50;;;;;;;11.94;100.00;101525.13;4982521;28;20461;-77
2023/09/25 00:40:52;;;;;;;3.90;1.47;;;;;;;11.84;100.00;101530.78;4984125;28;20185;-76
2023/09/25 00:43:17;;;;;;;5.17;2.27;;;;;;;11.29;100.00;101403.28;4998565;28;20210;-76
2023/09/25 00:45:45;;;;;;;3.37;1.63;;;;;;;12.10;100.00;101541.03;4981931;28;20224;-76
2023/09/25 00:48:24;;;;;;;4.77;1.60;;;;;;;11.70;100.00;101504.78;4985262;28;20665;-76
2023/09/25 00:50:49;;;;;;;3.20;1.40;;;;;;;11.21;100.00;101473.22;4984464;28;20525;-76
2023/09/25 00:53:15;;;;;;;3.80;1.50;;;;;;;10.67;100.00;101353.59;4983071;28;20497;-76
2023/09/25 00:55:42;;;;;;;3.10;1.43;;;;;;;11.87;100.00;101510.81;4983862;28;20194;-76
2023/09/25 00:58:08;;;;;;;6.27;1.67;;;;;;;10.49;100.00;101268.16;4983952;28;20524;-76
2023/09/25 01:00:35;;;;;;;3.03;1.60;;;;;;;10.68;100.00;101324.94;4997233;28;20524;-76
2023/09/25 01:03:01;;;;;;;4.27;2.00;;;;;;;11.69;100.00;101493.22;4980904;28;20213;-77
2023/09/25 01:05:28;;;;;;;5.00;1.50;;;;;;;12.24;100.00;101546.50;4984525;28;20838;-77
2023/09/25 01:07:53;;;;;;;4.57;1.67;;;;;;;10.71;100.00;101329.94;5001239;28;24035;-76
2023/09/25 01:10:19;;;;;;;3.87;1.80;;;;;;;11.57;100.00;101453.59;4981714;28;20442;-76
2023/09/25 01:12:47;;;;;;;4.20;1.80;;;;;;;10.58;100.00;101280.44;5000005;28;20213;-76
2023/09/25 01:15:14;;;;;;;3.30;1.60;;;;;;;11.81;100.00;101506.16;4985729;28;20629;-76
2023/09/25 01:17:40;;;;;;;3.97;1.67;;;;;;;9.86;100.00;101192.66;4983000;28;21254;-77
2023/09/25 01:20:11;;;;;;;3.30;1.70;;;;;;;11.55;100.00;101456.47;4981916;28;20524;-76
2023/09/25 01:22:37;;;;;;;3.50;1.70;;;;;;;9.93;100.00;101217.72;4980356;28;20523;-76
2023/09/25 01:25:03;;;;;;;2.83;1.57;;;;;;;10.38;100.00;101367.84;4999560;28;20433;-76
2023/09/25 01:27:28;;;;;;;2.37;1.30;;;;;;;10.57;100.00;101316.34;4980085;28;20251;-76
2023/09/25 01:29:54;;;;;;;5.40;1.70;;;;;;;10.71;100.00;101367.50;4982301;28;20938;-76
2023/09/25 01:32:19;;;;;;;4.03;1.60;;;;;;;11.21;100.00;101441.81;4983686;28;20213;-75
2023/09/25 01:34:45;;;;;;;3.10;1.63;;;;;;;11.14;100.00;101440.94;4980048;28;20201;-76
2023/09/25 01:37:10;;;;;;;2.73;1.70;;;;;;;12.08;100.00;101609.47;4982994;28;20174;-76
2023/09/25 01:39:36;;;;;;;4.63;2.13;;;;;;;12.23;100.00;101606.72;4979927;28;20268;-76
2023/09/25 01:42:03;;;;;;;3.07;1.60;;;;;;;10.40;100.00;101313.03;4983448;28;20284;-76
2023/09/25 01:44:29;;;;;;;4.20;1.80;;;;;;;11.06;100.00;101406.97;4996643;28;20641;-76
2023/09/25 01:46:55;;;;;;;3.93;1.50;;;;;;;11.93;100.00;101491.22;4981793;28;20480;-76
2023/09/25 01:49:20;;;;;;;2.53;1.53;;;;;;;11.32;100.00;101422.53;4984092;28;20236;-76
2023/09/25 01:51:46;;;;;;;3.93;1.70;;;;;;;10.58;100.00;101245.56;4981561;28;20449;-76
2023/09/25 01:54:11;;;;;;;2.70;1.63;;;;;;;11.28;100.00;101439.22;4982964;28;20174;-76
2023/09/25 01:56:37;;;;;;;2.80;1.60;;;;;;;11.20;100.00;101417.88;4982407;28;20225;-77
2023/09/25 01:59:02;;;;;;;4.03;1.60;;;;;;;10.38;100.00;101196.25;4983247;28;20186;-77
2023/09/25 02:01:28;;;;;;;3.60;1.60;;;;;;;11.46;100.00;101398.53;4984353;28;20194;-76
2023/09/25 02:03:53;;;;;;;4.30;1.70;;;;;;;10.23;100.00;101238.31;4982833;28;20193;-77
2023/09/25 02:06:19;;;;;;;3.80;1.53;;;;;;;10.38;100.00;101241.81;4984377;28;20639;-77
2023/09/25 02:08:44;;;;;;;4.63;1.77;;;;;;;11.07;100.00;101391.66;4983111;28;20305;-76
2023/09/25 02:11:09;;;;;;;2.93;1.40;;;;;;;11.03;100.00;101361.69;4983386;28;20229;-76
2023/09/25 02:13:35;;;;;;;4.13;1.60;;;;;;;10.50;100.00;101318.13;4981375;28;20584;-76
2023/09/25 02:16:00;;;;;;;3.33;1.57;;;;;;;10.52;100.00;101308.03;4983650;28;20181;-77
2023/09/25 02:18:26;;;;;;;3.27;1.83;;;;;;;10.41;100.00;101222.69;4982122;28;20198;-76
2023/09/25 02:20:51;;;;;;;5.07;1.77;;;;;;;10.23;100.00;101206.13;4982149;28;20189;-77
2023/09/25 02:23:17;;;;;;;3.90;1.53;;;;;;;10.47;100.00;101280.94;4980017;28;20212;-76
2023/09/25 02:25:42;;;;;;;2.93;1.47;;;;;;;11.09;100.00;101347.50;4988095;28;20608;-76
2023/09/25 02:28:08;;;;;;;2.60;1.30;;;;;;;11.42;100.00;101371.19;4986403;28;20216;-76
2023/09/25 02:30:33;;;;;;;3.13;1.87;;;;;;;10.33;100.00;101258.50;4984962;28;20225;-76
2023/09/25 02:32:59;;;;;;;4.93;1.57;;;;;;;10.69;100.00;101338.16;4982744;28;20209;-76
2023/09/25 02:35:25;;;;;;;3.87;1.70;;;;;;;10.24;100.00;101242.66;4986019;28;20244;-76
2023/09/25 02:37:50;;;;;;;4.90;1.80;;;;;;;12.70;100.00;101567.63;4986216;28;20257;-76
2023/09/25 02:40:16;;;;;;;2.97;1.40;;;;;;;12.35;100.00;101519.09;4987826;28;20613;-76
2023/09/25 02:42:42;;;;;;;3.17;1.50;;;;;;;10.48;100.00;101204.81;4984389;28;20204;-76
2023/09/25 02:45:08;;;;;;;3.27;1.60;;;;;;;10.67;100.00;101234.72;4987398;28;20921;-76
2023/09/25 02:47:34;;;;;;;3.73;1.67;;;;;;;12.57;100.00;101542.28;4983983;28;20490;-76
2023/09/25 02:50:00;;;;;;;5.00;1.53;;;;;;;10.52;100.00;101183.81;4986342;28;20529;-76
2023/09/25 02:52:26;;;;;;;6.93;1.97;;;;;;;9.85;100.00;101112.50;5000147;28;20259;-76
2023/09/25 02:54:52;;;;;;;3.60;1.97;;;;;;;11.26;100.00;101349.97;4983166;28;20973;-76
2023/09/25 02:57:17;;;;;;;3.00;1.60;;;;;;;10.60;100.00;101294.50;4989471;28;20436;-76
2023/09/25 02:59:43;;;;;;;2.77;1.50;;;;;;;10.94;100.00;101292.22;4988797;28;20228;-76
2023/09/25 03:02:08;;;;;;;3.13;1.60;;;;;;;11.03;100.00;101350.97;4984148;28;20601;-76
2023/09/25 03:04:34;;;;;;;3.87;1.67;;;;;;;10.97;100.00;101322.19;4984429;28;20558;-76
2023/09/25 03:06:59;;;;;;;3.03;1.37;;;;;;;11.50;100.00;101415.91;4986725;28;20205;-76
2023/09/25 03:09:25;;;;;;;2.57;1.63;;;;;;;11.43;100.00;101397.03;5004481;28;20216;-76
2023/09/25 03:11:51;;;;;;;5.00;2.00;;;;;;;10.92;100.00;101307.69;4987432;28;20203;-76
2023/09/25 03:14:16;;;;;;;4.10;1.70;;;;;;;12.38;100.00;101589.53;4990014;28;20178;-76
2023/09/25 03:16:42;;;;;;;3.73;1.87;;;;;;;11.00;100.00;101398.81;4988735;28;20189;-76
2023/09/25 03:19:07;;;;;;;3.17;1.80;;;;;;;10.08;100.00;101257.91;4986721;28;20747;-76
2023/09/25 03:21:33;;;;;;;2.60;1.37;;;;;;;10.91;100.00;101357.00;4987845;28;20190;-76
2023/09/25 03:23:59;;;;;;;3.30;1.60;;;;;;;10.26;100.00;101170.91;4987157;28;20186;-76
2023/09/25 03:26:24;;;;;;;4.60;1.87;;;;;;;11.61;100.00;101469.16;4988560;28;20328;-76
2023/09/25 03:28:50;;;;;;;4.87;1.90;;;;;;;11.35;100.00;101423.19;4987701;28;20185;-76
2023/09/25 03:31:15;;;;;;;4.00;1.93;;;;;;;9.75;100.00;101112.78;4988702;28;20186;-76
2023/09/25 03:33:41;;;;;;;4.00;1.87;;;;;;;10.26;100.00;101228.03;4986815;28;20297;-76
2023/09/25 03:36:07;;;;;;;3.60;2.00;;;;;;;9.70;100.00;101117.88;4985716;28;20189;-76
2023/09/25 03:38:34;;;;;;;3.10;1.70;;;;;;;11.21;100.00;101349.69;5001331;28;20190;-76
2023/09/25 03:41:00;;;;;;;3.73;1.70;;;;;;;9.98;100.00;101211.81;4985856;28;20524;-76
2023/09/25 03:43:26;;;;;;;3.07;1.83;;;;;;;11.13;100.00;101357.88;4988575;28;20570;-76
2023/09/25 03:45:52;;;;;;;4.00;1.70;;;;;;;10.99;100.00;101338.09;4987513;28;20730;-76
2023/09/25 03:48:17;;;;;;;3.57;2.03;;;;;;;10.50;100.00;101280.56;5002164;28;20472;-76
2023/09/25 03:50:43;;;;;;;4.10;2.00;;;;;;;9.76;100.00;101218.91;4986966;28;20237;-76
2023/09/25 03:53:08;;;;;;;3.60;2.00;;;;;;;10.20;100.00;101164.44;4987151;28;20221;-77
2023/09/25 03:55:34;;;;;;;5.53;1.60;;;;;;;10.60;100.00;101286.47;4985189;28;20209;-76
2023/09/25 03:57:59;;;;;;;3.07;1.70;;;;;;;10.63;100.00;101315.59;4986814;28;20293;-76
2023/09/25 04:00:26;;;;;;;3.60;1.30;;;;;;;9.77;100.00;101150.91;4987173;28;20559;-76
2023/09/25 04:02:52;;;;;;;3.53;1.73;;;;;;;10.84;100.00;101976.88;4984000;28;20260;-76
2023/09/25 04:05:18;;;;;;;6.00;1.57;;;;;;;9.95;100.00;101837.44;4987751;28;20524;-76
2023/09/25 04:07:43;;;;;;;3.93;2.23;;;;;;;10.31;100.00;101922.00;4985605;28;20543;-76
2023/09/25 04:10:09;;;;;;;3.67;1.73;;;;;;;9.86;100.00;101837.59;4987004;28;20185;-76
2023/09/25 04:12:35;;;;;;;4.60;2.10;;;;;;;12.15;100.00;102227.13;4986672;28;20280;-76
2023/09/25 04:15:01;;;;;;;3.17;1.80;;;;;;;10.68;100.00;101980.44;4985690;28;20189;-76
2023/09/25 04:17:27;;;;;;;4.77;2.03;;;;;;;9.96;100.00;101820.34;4986227;28;20208;-76
2023/09/25 04:19:53;;;;;;;4.37;1.80;;;;;;;9.69;100.00;101853.72;4986050;28;20441;-76
2023/09/25 04:22:19;;;;;;;6.60;2.47;;;;;;;10.00;100.00;101846.81;4985777;28;20456;-76
2023/09/25 04:24:44;;;;;;;3.70;2.13;;;;;;;12.12;100.00;102221.22;4981685;28;20186;-76
2023/09/25 04:27:10;;;;;;;4.33;2.30;;;;;;;10.67;100.00;101994.03;4986427;28;20969;-76
2023/09/25 04:29:38;;;;;;;4.67;2.03;;;;;;;10.92;100.00;102075.34;4984696;28;20189;-76
2023/09/25 04:32:03;;;;;;;7.17;2.10;;;;;;;9.37;100.00;101827.75;5001209;28;20202;-76
2023/09/25 04:34:29;;;;;;;3.30;1.77;;;;;;;10.31;100.00;101928.22;4984815;28;20462;-76
2023/09/25 04:36:55;;;;;;;5.40;1.90;;;;;;;9.65;100.00;101777.34;4983990;28;20674;-76
2023/09/25 04:39:20;;;;;;;3.90;1.77;;;;;;;11.29;100.00;102070.19;4986787;28;20208;-76
2023/09/25 04:41:47;;;;;;;3.57;2.00;;;;;;;9.75;100.00;101868.28;4985388;28;20213;-76
2023/09/25 04:44:12;;;;;;;3.03;1.93;;;;;;;11.32;100.00;102152.28;5000847;28;20484;-76
2023/09/25 04:46:38;;;;;;;4.67;1.80;;;;;;;9.55;100.00;101843.66;4984114;28;20472;-76
2023/09/25 04:49:07;;;;;;;3.93;2.00;;;;;;;9.43;100.00;101896.72;4984047;28;20592;-76
2023/09/25 04:51:33;;;;;;;3.43;1.90;;;;;;;10.36;100.00;102043.03;4985345;28;20648;-76
2023/09/25 04:54:00;;;;;;;3.17;1.87;;;;;;;10.76;100.00;102036.78;4985260;28;20516;-77
2023/09/25 04:56:27;;;;;;;3.13;1.90;;;;;;;10.08;100.00;101911.97;4985127;28;20452;-76
2023/09/25 04:58:53;;;;;;;3.50;1.77;;;;;;;9.32;100.00;101816.72;4985694;28;20872;-76
2023/09/25 05:01:19;;;;;;;3.97;2.10;;;;;;;10.42;100.00;102026.25;4985706;28;21009;-76
2023/09/25 05:03:45;;;;;;;3.50;1.87;;;;;;;9.58;100.00;101886.19;4985332;28;20449;-76
2023/09/25 05:06:11;;;;;;;4.20;2.47;;;;;;;10.14;100.00;102023.88;4983328;28;20189;-76
2023/09/25 05:08:38;;;;;;;4.47;2.43;;;;;;;9.63;100.00;101972.25;4983277;28;20212;-76
2023/09/25 05:11:05;;;;;;;3.53;2.00;;;;;;;11.28;100.00;102232.38;4983779;28;20444;-75
2023/09/25 05:13:31;;;;;;;5.13;2.40;;;;;;;10.61;100.00;102113.59;4986529;28;20467;-76
2023/09/25 05:15:57;;;;;;;4.53;2.00;;;;;;;10.12;100.00;102003.59;5000315;28;20437;-76
2023/09/25 05:18:22;;;;;;;4.20;2.50;;;;;;;9.79;100.00;101908.97;4985449;28;20455;-76
2023/09/25 05:20:48;;;;;;;7.80;2.10;;;;;;;9.34;100.00;101862.03;4998934;28;20193;-75
2023/09/25 05:23:13;;;;;;;5.73;2.00;;;;;;;10.09;100.00;102012.81;4985655;28;20209;-76
2023/09/25 05:25:38;;;;;;;3.37;1.80;;;;;;;9.22;100.00;101861.53;4983604;28;20538;-76
2023/09/25 05:28:05;;;;;;;3.87;2.10;;;;;;;9.28;100.00;101850.16;4986423;28;20208;-76
2023/09/25 05:30:30;;;;;;;3.20;1.83;;;;;;;11.12;100.00;102159.88;4986150;28;20811;-76
2023/09/25 05:32:56;;;;;;;5.30;2.20;;;;;;;10.15;100.00;102022.03;4984773;28;20461;-76
2023/09/25 05:35:21;;;;;;;4.90;2.17;;;;;;;10.10;100.00;101992.22;4988502;28;20193;-77
2023/09/25 05:37:48;;;;;;;2.80;1.90;;;;;;;11.76;100.00;102287.03;4985851;28;20271;-76
2023/09/25 05:40:14;;;;;;;3.20;1.93;;;;;;;9.47;100.00;101895.38;4982197;28;20252;-76
2023/09/25 05:42:42;;;;;;;3.87;1.67;;;;;;;9.73;100.00;101943.44;4998804;28;20503;-76
2023/09/25 05:45:08;;;;;;;4.10;1.83;;;;;;;9.68;100.00;101943.09;4986413;28;20462;-76
2023/09/25 05:47:34;;;;;;;2.77;1.60;;;;;;;10.46;100.00;102042.84;4982374;28;20476;-76
2023/09/25 05:50:00;;;;;;;4.43;1.73;;;;;;;10.10;100.00;101944.81;4985572;28;20440;-76
2023/09/25 05:52:26;;;;;;;3.80;2.30;;;;;;;10.44;100.00;102021.56;4985592;28;20488;-75
2023/09/25 05:54:51;;;;;;;5.30;1.77;;;;;;;9.58;100.00;101842.50;4984311;28;20202;-76
2023/09/25 05:57:18;;;;;;;3.37;1.90;;;;;;;10.84;100.00;102068.13;4985621;28;20198;-76
2023/09/25 05:59:43;;;;;;;3.87;1.50;;;;;;;11.06;100.00;102067.41;4982596;28;20271;-77
2023/09/25 06:02:09;;;;;;;3.33;1.80;;;;;;;11.00;100.00;102081.53;4986795;28;21140;-76
2023/09/25 06:04:36;;;;;;;3.13;1.70;;;;;;;9.45;100.00;101782.22;5000431;28;20189;-76
2023/09/25 06:07:09;;;;;;;4.93;1.70;;;;;;;11.33;100.00;102119.03;4983266;28;20240;-76
2023/09/25 06:09:35;;;;;;;3.43;1.70;;;;;;;10.09;100.00;101872.56;4998396;28;20468;-77
2023/09/25 06:12:01;;;;;;;4.07;2.00;;;;;;;10.99;100.00;101985.91;4989676;28;20534;-76
2023/09/25 06:14:29;;;;;;;3.53;1.50;;;;;;;12.50;100.00;102234.81;4982633;28;20664;-75
2023/09/25 06:16:57;;;;;;;4.00;1.80;;;;;;;10.37;100.00;101887.28;4983682;28;20445;-76
2023/09/25 06:19:23;;;;;;;3.43;1.70;;;;;;;12.61;100.00;102245.19;4981129;28;20459;-75
2023/09/25 06:21:48;;;;;;;3.90;1.67;;;;;;;11.38;100.00;102003.84;4985794;28;20543;-76
2023/09/25 06:24:14;;;;;;;4.20;2.10;;;;;;;10.59;100.00;101853.53;4985207;28;20448;-76
2023/09/25 06:26:41;;;;;;;3.00;1.43;;;;;;;11.22;100.00;101923.34;4984770;28;20617;-76
2023/09/25 06:29:09;;;;;;;3.20;1.30;;;;;;;11.06;100.00;101841.88;4982158;28;20432;-75
2023/09/25 06:31:36;;;;;;;2.97;1.50;;;;;;;10.61;100.00;101759.44;4984592;28;20441;-76
2023/09/25 06:34:07;;;;;;;5.60;1.40;;;;;;;11.76;100.00;101979.75;4984977;28;20816;-76
2023/09/25 06:36:36;;;;;;;3.57;1.40;;;;;;;10.79;100.00;101807.47;4985731;28;20456;-77
2023/09/25 06:39:06;;;;;;;3.73;1.83;;;;;;;12.06;100.00;101950.31;4986546;28;20441;-77
2023/09/25 06:41:32;;;;;;;5.83;1.80;;;;;;;11.97;100.00;101928.88;4984844;28;21476;-77
2023/09/25 06:43:58;;;;;;;3.03;1.80;;;;;;;11.98;100.00;101970.06;4998070;28;20478;-76
2023/09/25 06:46:24;;;;;;;4.63;1.50;;;;;;;11.60;100.00;101873.25;4986101;28;20452;-76
2023/09/25 06:48:50;;;;;;;3.07;1.67;;;;;;;10.52;100.00;101707.69;4984598;28;20927;-76
2023/09/25 06:51:18;;;;;;;3.77;1.83;;;;;;;10.90;100.00;101761.44;4984943;28;20186;-76
2023/09/25 06:53:44;;;;;;;3.57;1.50;;;;;;;11.13;100.00;101795.50;4983576;28;20229;-76
2023/09/25 06:56:10;;;;;;;6.17;1.93;;;;;;;10.92;100.00;101708.41;4986329;28;20931;-77
2023/09/25 06:58:36;;;;;;;4.67;1.73;;;;;;;10.67;100.00;101647.91;4997997;28;20201;-75
2023/09/25 07:01:02;;;;;;;4.07;1.70;;;;;;;11.27;100.00;101754.44;4982464;28;20441;-77
2023/09/25 07:03:28;;;;;;;4.43;1.83;;;;;;;11.65;100.00;101816.25;4982175;28;20589;-76
2023/09/25 07:05:53;;;;;;;4.13;1.73;;;;;;;12.25;100.00;101862.91;4984347;28;20567;-76
2023/09/25 07:08:19;;;;;;;3.90;1.73;;;;;;;11.50;100.00;101766.00;4983350;28;20340;-76
2023/09/25 07:10:46;;;;;;;3.97;1.37;;;;;;;11.48;100.00;101708.91;4987876;28;20604;-77
2023/09/25 07:13:12;;;;;;;4.93;1.90;;;;;;;10.72;100.00;101578.44;4989028;28;20300;-77
2023/09/25 07:15:39;;;;;;;3.00;1.40;;;;;;;12.58;100.00;101906.41;4987577;28;20448;-76
2023/09/25 07:18:04;;;;;;;3.47;1.70;;;;;;;11.18;100.00;101654.34;4987998;28;20463;-77
2023/09/25 07:20:30;;;;;;;5.30;2.10;;;;;;;10.69;100.00;101570.75;4989691;28;20478;-77
2023/09/25 07:22:55;;;;;;;4.70;2.20;;;;;;;11.80;100.00;101692.63;4990583;28;20680;-76
2023/09/25 07:25:21;;;;;;;3.93;1.50;;;;;;;12.09;100.00;101737.50;4990171;28;20210;-76
2023/09/25 07:27:46;;;;;;;3.40;1.97;;;;;;;11.14;100.00;101596.66;4988848;28;20272;-76
2023/09/25 07:30:12;;;;;;;6.43;1.40;;;;;;;11.83;100.00;101692.25;4991862;28;20178;-75
2023/09/25 07:32:39;;;;;;;4.00;1.57;;;;;;;12.53;100.00;101768.91;4989647;28;20221;-76
2023/09/25 07:35:07;;;;;;;3.20;1.70;;;;;;;11.68;100.00;101619.69;5004386;28;20185;-77
2023/09/25 07:37:33;;;;;;;3.77;1.80;;;;;;;11.92;100.00;101673.19;4988555;28;20813;-76
2023/09/25 07:39:58;;;;;;;4.20;1.80;;;;;;;11.91;100.00;101665.31;4988911;28;20448;-76
2023/09/25 07:42:24;;;;;;;5.07;2.03;;;;;;;12.37;100.00;101682.00;4988943;28;20201;-77
2023/09/25 07:44:49;;;;;;;3.53;1.60;;;;;;;11.21;100.00;101455.25;4988749;28;20200;-76
2023/09/25 07:47:17;;;;;;;2.20;1.10;;;;;;;13.17;100.00;101800.47;4987827;28;20340;-77
2023/09/25 07:49:45;;;;;;;6.33;2.37;;;;;;;11.39;100.00;101454.00;4986421;28;20630;-77
2023/09/25 07:52:15;;;;;;;6.37;1.63;;;;;;;12.50;100.00;101654.41;4987231;28;20500;-77
2023/09/25 07:54:48;;;;;;;5.03;1.43;;;;;;;13.13;100.00;101759.56;4985724;28;20503;-76
2023/09/25 07:57:15;;;;;;;5.23;2.00;;;;;;;11.44;100.00;101439.00;5003719;28;20447;-76
2023/09/25 07:59:44;;;;;;;4.23;1.50;;;;;;;12.03;100.00;101545.50;5002228;28;20939;-76
2023/09/25 08:02:11;;;;;;;3.30;1.30;;;;;;;11.86;100.00;101477.72;4989137;28;20546;-77
2023/09/25 08:04:37;;;;;;;5.20;1.70;;;;;;;13.11;100.00;101695.16;5000351;28;20443;-76
2023/09/25 08:07:03;;;;;;;3.77;1.60;;;;;;;12.47;100.00;101536.41;4985775;28;20843;-77
2023/09/25 08:09:29;;;;;;;3.70;1.80;;;;;;;11.68;100.00;101396.66;4985878;28;20448;-76
2023/09/25 08:11:55;;;;;;;5.47;1.80;;;;;;;13.09;100.00;101623.63;4986405;28;20217;-78
2023/09/25 08:14:20;;;;;;;2.50;1.30;;;;;;;12.99;100.00;101580.06;4989887;28;21143;-77
2023/09/25 08:16:46;;;;;;;4.70;1.60;;;;;;;12.68;100.00;101479.00;4986779;28;20186;-78
2023/09/25 08:19:12;;;;;;;3.53;1.67;;;;;;;13.48;100.00;101614.16;5004438;28;20207;-78
2023/09/25 08:21:37;;;;;;;3.00;1.70;;;;;;;12.83;100.00;101498.56;4986571;28;20930;-78
2023/09/25 08:24:03;;;;;;;4.30;1.80;;;;;;;12.66;100.00;101429.91;4986431;28;20228;-76
2023/09/25 08:26:29;;;;;;;3.27;1.57;;;;;;;13.57;100.00;101575.25;4986879;28;20336;-78
2023/09/25 08:28:57;;;;;;;3.27;1.40;;;;;;;13.90;100.00;101586.16;4985246;28;20718;-76
2023/09/25 08:31:23;;;;;;;4.00;1.80;;;;;;;13.84;100.00;101553.78;4986074;28;20436;-77
2023/09/25 08:33:48;;;;;;;3.13;1.40;;;;;;;13.08;100.00;101438.84;4987192;28;20860;-77
2023/09/25 08:36:14;;;;;;;4.17;1.60;;;;;;;13.98;100.00;101575.19;4987957;28;20190;-77
2023/09/25 08:38:39;;;;;;;4.47;2.07;;;;;;;14.54;100.00;101641.53;4985840;28;20711;-78
2023/09/25 08:41:05;;;;;;;4.10;1.53;;;;;;;14.40;100.00;101602.88;4987546;28;20664;-77
2023/09/25 08:43:32;;;;;;;3.90;1.63;;;;;;;14.07;100.00;101539.94;4987495;28;20213;-78
2023/09/25 08:45:58;;;;;;;3.50;1.97;;;;;;;15.38;100.00;101734.69;4988544;28;20204;-77
2023/09/25 08:48:24;;;;;;;8.70;1.93;;;;;;;14.38;100.00;101569.88;5001220;28;20504;-77
2023/09/25 08:50:50;;;;;;;4.47;1.60;;;;;;;14.07;100.00;101511.09;4981639;28;20539;-77
2023/09/25 08:53:16;;;;;;;3.70;1.60;;;;;;;14.47;100.00;101560.53;4997568;28;20569;-79
2023/09/25 08:55:45;;;;;;;4.27;1.93;;;;;;;12.77;100.00;101278.63;4985027;28;20811;-79
2023/09/25 08:58:11;;;;;;;3.27;1.30;;;;;;;13.00;100.00;101277.44;4982781;28;20453;-78
2023/09/25 09:00:38;;;;;;;2.90;1.40;;;;;;;13.04;100.00;101279.50;5001260;28;20538;-77
2023/09/25 09:03:04;;;;;;;3.10;1.50;;;;;;;12.82;100.00;101260.00;4985333;28;21171;-77
2023/09/25 09:05:30;;;;;;;4.00;1.77;;;;;;;15.60;100.00;101738.81;4983985;28;20448;-77
2023/09/25 09:08:05;;;;;;;4.33;1.53;;;;;;;15.71;100.00;101675.19;4985314;28;20483;-77
2023/09/25 09:10:32;;;;;;;3.00;1.27;;;;;;;14.48;100.00;101483.91;4984824;28;20679;-78
2023/09/25 09:12:58;;;;;;;3.40;1.40;;;;;;;13.25;100.00;101278.56;4985404;28;20460;-77
2023/09/25 09:15:28;;;;;;;4.50;1.70;;;;;;;13.77;100.00;101293.06;4984476;28;20449;-77
2023/09/25 09:17:55;;;;;;;3.00;1.47;;;;;;;13.52;100.00;101224.66;4986760;28;20440;-77
2023/09/25 09:20:42;;;;;;;3.30;1.50;;;;;;;16.27;100.00;101646.63;4988383;28;20441;-77
2023/09/25 09:23:08;;;;;;;2.67;1.23;;;;;;;14.52;100.00;101305.38;4987653;28;20587;-78
2023/09/25 09:25:35;;;;;;;3.77;1.70;;;;;;;15.58;100.00;101492.13;4986224;28;20456;-77
2023/09/25 09:28:03;;;;;;;3.60;1.73;;;;;;;14.36;100.00;101276.97;4984526;28;20475;-78
2023/09/25 09:30:28;;;;;;;3.90;1.57;;;;;;;15.12;100.00;101412.09;4984291;28;20935;-78
2023/09/25 09:32:54;;;;;;;4.03;1.30;;;;;;;15.24;100.00;101403.31;4984737;28;20572;-77
2023/09/25 09:35:30;;;;;;;3.73;1.20;;;;;;;15.41;100.00;101447.72;4986341;28;20193;-76
2023/09/25 09:37:57;;;;;;;4.17;1.90;;;;;;;15.58;100.00;101497.53;5001126;28;20185;-76
2023/09/25 09:40:27;;;;;;;4.40;1.40;;;;;;;14.60;100.00;101303.25;4988316;28;20882;-77
2023/09/25 09:42:53;;;;;;;2.77;1.20;;;;;;;15.27;100.00;101506.41;4986319;28;20465;-75
2023/09/25 09:45:20;;;;;;;3.50;1.47;;;;;;;15.18;100.00;101474.44;5001818;28;20440;-76
2023/09/25 09:47:48;;;;;;;3.60;1.40;;;;;;;15.62;100.00;101505.22;4985498;28;20218;-76
2023/09/25 09:50:22;;;;;;;4.00;1.50;;;;;;;15.81;100.00;101534.91;4984389;28;20787;-75
2023/09/25 09:52:48;;;;;;;4.90;1.40;;;;;;;15.30;100.00;101467.31;4999808;28;20468;-76
2023/09/25 09:55:15;;;;;;;3.30;1.40;;;;;;;14.54;100.00;101298.72;4986751;28;20440;-76
2023/09/25 09:57:41;;;;;;;3.37;1.50;;;;;;;15.84;100.00;101509.28;4984561;28;20512;-75
2023/09/25 10:00:08;;;;;;;3.30;1.60;;;;;;;16.84;100.00;101690.06;4983330;28;20470;-75
2023/09/25 10:02:34;;;;;;;4.83;1.27;;;;;;;14.79;100.00;101390.63;4984961;28;20457;-75
2023/09/25 10:05:02;;;;;;;2.90;1.43;;;;;;;15.85;100.00;101559.63;4982682;28;20539;-75
2023/09/25 10:07:28;;;;;;;5.50;1.67;;;;;;;14.67;100.00;101338.34;4992614;28;20531;-75
2023/09/25 10:09:58;;;;;;;2.70;1.27;;;;;;;16.14;100.00;101558.25;4973955;28;20449;-75
2023/09/25 10:12:48;;;;;;;5.13;1.47;;;;;;;15.02;100.00;101379.31;4967808;28;20225;-75
2023/09/25 10:15:21;;;;;;;4.30;1.70;;;;;;;16.15;100.00;101576.13;4982666;28;20984;-75
2023/09/25 10:17:48;;;;;;;4.30;1.27;;;;;;;15.64;100.00;101462.56;4999476;28;20950;-75
2023/09/25 10:20:41;;;;;;;3.30;1.50;;;;;;;16.31;100.00;101563.94;4983685;28;21170;-75
2023/09/25 10:23:06;;;;;;;3.87;1.50;;;;;;;17.87;100.00;101770.09;4999280;28;20472;-75
2023/09/25 10:25:44;;;;;;;4.27;1.50;;;;;;;16.09;100.00;101535.59;4984151;28;20452;-74
2023/09/25 10:28:22;;;;;;;2.90;1.30;;;;;;;17.13;100.00;101731.94;4985199;28;20209;-74
2023/09/25 10:30:49;;;;;;;2.80;1.20;;;;;;;16.54;100.00;101605.84;4984995;28;20506;-75
2023/09/25 10:33:18;;;;;;;6.70;1.90;;;;;;;16.52;100.00;101619.63;4983776;28;20465;-75
2023/09/25 10:35:49;;;;;;;4.63;1.47;;;;;;;15.77;100.00;101479.59;4981063;28;20459;-75
2023/09/25 10:38:28;;;;;;;3.20;1.40;;;;;;;15.68;100.00;101480.03;4983354;28;20435;-75
2023/09/25 10:40:55;;;;;;;3.40;1.40;;;;;;;17.84;100.00;101802.06;4984219;28;20484;-75
2023/09/25 10:43:23;;;;;;;2.90;1.20;;;;;;;16.05;100.00;101602.81;4986050;28;20479;-75
2023/09/25 10:45:50;;;;;;;3.20;1.60;;;;;;;16.91;100.00;101949.09;4985972;28;20440;-75
2023/09/25 10:48:19;;;;;;;3.03;1.30;;;;;;;16.33;100.00;101994.19;4987219;28;21037;-76
2023/09/25 10:50:45;;;;;;;3.27;1.77;;;;;;;17.05;100.00;102298.72;4989079;28;21123;-78
2023/09/25 10:53:11;;;;;;;5.43;1.80;;;;;;;16.71;100.00;102030.41;4987410;28;21498;-74
2023/09/25 10:55:38;;;;;;;4.33;1.70;;;;;;;15.95;100.00;101795.41;4990539;28;20437;-78
2023/09/25 10:58:05;;;;;;;2.70;1.50;;;;;;;16.47;100.00;101800.88;4991115;28;20209;-76
2023/09/25 11:00:34;;;;;;;6.20;1.97;;;;;;;16.90;100.00;101841.75;4986809;28;20500;-76
2023/09/25 11:03:01;;;;;;;4.63;1.70;;;;;;;16.05;100.00;101746.25;4989505;28;20464;-75
2023/09/25 11:05:32;;;;;;;3.60;1.67;;;;;;;17.55;100.00;102039.56;5005154;28;20444;-76
2023/09/25 11:07:58;;;;;;;3.13;1.30;;;;;;;18.30;100.00;102183.69;4988786;28;20563;-76
2023/09/25 11:10:51;;;;;;;3.80;1.30;;;;;;;18.61;100.00;102176.59;4988342;28;20490;-76
2023/09/25 11:13:16;;;;;;;4.53;1.57;;;;;;;17.16;100.00;101970.91;4989186;28;20479;-76
2023/09/25 11:15:44;;;;;;;5.20;1.47;;;;;;;17.12;100.00;101939.00;4987216;28;20448;-76